Kezdőlap
METAR-TAF:

METAR-TAF

Repülőterek :

Davenport Municipal Airport

Davenport, Iowa, Amerikai Egyesült Államok

földrajzi szélesség: 41-36-50N, földrajzi hosszúság: 090-35-29W, magasság: 229 m

Jelenlegi meteorológiai megfigyelések

A jelentés 8 perccel ezelõtt készült, 10:52 UTC
Déli szél 5 kt
Hőmérséklet 7°C
Páratartalom 93%
Légköri nyomás 1001 hPa
Látótávolság: 9.7 km
Borult 1100 lábon
Párásság

METAR: KDVN 091052Z AUTO 18005KT 6SM BR OVC011 07/06 A2957 RMK AO2 SLP013 T00720056

Idő: 05:00 (11:00 UTC)


TAF: hiányzik

Meteorológiai megfigyelések és előrejelzések több, mint 4000 repülőtéren (METAR és TAF jelentéseket).

A térképen piros és sárga pontok jelzik az elérhető meteorológiai állomásokat.

Mozgassa az egeret a pont fölött, hogy megjelenjen az állomás neve.

Azután kattintson az időjárási megfigyelések és előrejelzések megtekintéséhez.

A térkép megváltoztatása: kattintson a fekete keresztel jelölt zöld gombra ráközelítéshez, a vonallal jelölt zöld gombra távolításhoz, vagy a zöld nyilakra a szomszédos térképek eléréséhez.


METAR-TAF: